sensor_id;sensor_type;location;lat;lon;timestamp;temperature;humidity
14170;DHT22;63889;50.596;8.690;2022-12-24T00:00:57;11.10;99.90
14170;DHT22;63889;50.596;8.690;2022-12-24T00:03:22;11.10;99.90
14170;DHT22;63889;50.596;8.690;2022-12-24T00:05:48;11.10;99.90
14170;DHT22;63889;50.596;8.690;2022-12-24T00:08:13;11.00;99.90
14170;DHT22;63889;50.596;8.690;2022-12-24T00:10:39;11.00;99.90
14170;DHT22;63889;50.596;8.690;2022-12-24T00:13:04;11.00;99.90
14170;DHT22;63889;50.596;8.690;2022-12-24T00:15:30;11.00;99.90
14170;DHT22;63889;50.596;8.690;2022-12-24T00:17:55;11.10;99.90
14170;DHT22;63889;50.596;8.690;2022-12-24T00:20:21;11.00;99.90
14170;DHT22;63889;50.596;8.690;2022-12-24T00:22:48;11.10;99.90
14170;DHT22;63889;50.596;8.690;2022-12-24T00:25:14;11.00;99.90
14170;DHT22;63889;50.596;8.690;2022-12-24T00:27:39;11.00;99.90
14170;DHT22;63889;50.596;8.690;2022-12-24T00:30:05;11.00;99.90
14170;DHT22;63889;50.596;8.690;2022-12-24T00:32:31;11.00;99.90
14170;DHT22;63889;50.596;8.690;2022-12-24T00:34:57;11.00;99.90
14170;DHT22;63889;50.596;8.690;2022-12-24T00:37:22;11.00;99.90
14170;DHT22;63889;50.596;8.690;2022-12-24T00:39:48;10.90;99.90
14170;DHT22;63889;50.596;8.690;2022-12-24T00:42:13;10.80;99.90
14170;DHT22;63889;50.596;8.690;2022-12-24T00:44:39;10.80;99.90
14170;DHT22;63889;50.596;8.690;2022-12-24T00:47:04;10.80;99.90
14170;DHT22;63889;50.596;8.690;2022-12-24T00:49:30;10.80;99.90
14170;DHT22;63889;50.596;8.690;2022-12-24T00:51:55;10.70;99.90
14170;DHT22;63889;50.596;8.690;2022-12-24T00:54:21;10.80;99.90
14170;DHT22;63889;50.596;8.690;2022-12-24T00:56:46;10.70;99.90
14170;DHT22;63889;50.596;8.690;2022-12-24T00:59:12;10.70;99.90
14170;DHT22;63889;50.596;8.690;2022-12-24T01:01:37;10.70;99.90
14170;DHT22;63889;50.596;8.690;2022-12-24T01:04:03;10.80;99.90
14170;DHT22;63889;50.596;8.690;2022-12-24T01:06:47;10.80;99.90
14170;DHT22;63889;50.596;8.690;2022-12-24T01:09:12;10.80;99.90
14170;DHT22;63889;50.596;8.690;2022-12-24T01:11:38;10.80;99.90
14170;DHT22;63889;50.596;8.690;2022-12-24T01:14:03;10.90;99.90
14170;DHT22;63889;50.596;8.690;2022-12-24T01:16:29;10.90;99.90
14170;DHT22;63889;50.596;8.690;2022-12-24T01:18:55;10.90;99.90
14170;DHT22;63889;50.596;8.690;2022-12-24T01:21:21;10.90;99.90
14170;DHT22;63889;50.596;8.690;2022-12-24T01:23:46;10.90;99.90
14170;DHT22;63889;50.596;8.690;2022-12-24T01:26:12;10.80;99.90
14170;DHT22;63889;50.596;8.690;2022-12-24T01:28:37;10.80;99.90
14170;DHT22;63889;50.596;8.690;2022-12-24T01:31:13;10.80;99.90
14170;DHT22;63889;50.596;8.690;2022-12-24T01:33:39;10.80;99.90
14170;DHT22;63889;50.596;8.690;2022-12-24T01:36:05;10.70;99.90
14170;DHT22;63889;50.596;8.690;2022-12-24T01:38:30;10.70;99.90
14170;DHT22;63889;50.596;8.690;2022-12-24T01:40:56;10.70;99.90
14170;DHT22;63889;50.596;8.690;2022-12-24T01:43:40;10.70;99.90
14170;DHT22;63889;50.596;8.690;2022-12-24T01:48:48;10.60;99.90
14170;DHT22;63889;50.596;8.690;2022-12-24T01:54:09;10.70;99.90
14170;DHT22;63889;50.596;8.690;2022-12-24T01:56:40;10.70;99.90
14170;DHT22;63889;50.596;8.690;2022-12-24T01:59:08;10.60;99.90
14170;DHT22;63889;50.596;8.690;2022-12-24T02:01:35;10.50;99.90
14170;DHT22;63889;50.596;8.690;2022-12-24T02:04:08;10.60;99.90
14170;DHT22;63889;50.596;8.690;2022-12-24T02:06:36;10.60;99.90
14170;DHT22;63889;50.596;8.690;2022-12-24T02:09:02;10.60;99.90
14170;DHT22;63889;50.596;8.690;2022-12-24T02:11:29;10.50;99.90
14170;DHT22;63889;50.596;8.690;2022-12-24T02:13:57;10.40;99.90
14170;DHT22;63889;50.596;8.690;2022-12-24T02:22:17;10.50;99.90
14170;DHT22;63889;50.596;8.690;2022-12-24T02:24:52;10.60;99.90
14170;DHT22;63889;50.596;8.690;2022-12-24T02:30:23;10.80;99.90
14170;DHT22;63889;50.596;8.690;2022-12-24T02:38:19;10.70;99.90
14170;DHT22;63889;50.596;8.690;2022-12-24T02:40:54;10.70;99.90
14170;DHT22;63889;50.596;8.690;2022-12-24T02:43:25;10.70;99.90
14170;DHT22;63889;50.596;8.690;2022-12-24T02:45:57;10.70;99.90
14170;DHT22;63889;50.596;8.690;2022-12-24T02:48:23;10.70;99.90
14170;DHT22;63889;50.596;8.690;2022-12-24T02:51:04;10.70;99.90
14170;DHT22;63889;50.596;8.690;2022-12-24T02:53:30;10.70;99.90
14170;DHT22;63889;50.596;8.690;2022-12-24T03:01:33;10.80;99.90
14170;DHT22;63889;50.596;8.690;2022-12-24T03:04:22;10.80;99.90
14170;DHT22;63889;50.596;8.690;2022-12-24T03:07:14;10.90;99.90
14170;DHT22;63889;50.596;8.690;2022-12-24T03:10:05;10.90;99.90
14170;DHT22;63889;50.596;8.690;2022-12-24T03:12:53;10.90;99.90
14170;DHT22;63889;50.596;8.690;2022-12-24T03:15:22;10.80;99.90
14170;DHT22;63889;50.596;8.690;2022-12-24T03:17:49;10.80;99.90
14170;DHT22;63889;50.596;8.690;2022-12-24T03:20:40;10.70;99.90
14170;DHT22;63889;50.596;8.690;2022-12-24T03:23:07;10.60;99.90
14170;DHT22;63889;50.596;8.690;2022-12-24T03:25:33;10.60;99.90
14170;DHT22;63889;50.596;8.690;2022-12-24T03:28:02;10.60;99.90
14170;DHT22;63889;50.596;8.690;2022-12-24T03:30:29;10.60;99.90
14170;DHT22;63889;50.596;8.690;2022-12-24T03:32:55;10.60;99.90
14170;DHT22;63889;50.596;8.690;2022-12-24T03:35:21;10.60;99.90
14170;DHT22;63889;50.596;8.690;2022-12-24T03:37:46;10.60;99.90
14170;DHT22;63889;50.596;8.690;2022-12-24T03:40:12;10.60;99.90
14170;DHT22;63889;50.596;8.690;2022-12-24T03:42:38;10.60;99.90
14170;DHT22;63889;50.596;8.690;2022-12-24T03:45:07;10.50;99.90
14170;DHT22;63889;50.596;8.690;2022-12-24T03:47:33;10.60;99.90
14170;DHT22;63889;50.596;8.690;2022-12-24T03:49:58;10.60;99.90
14170;DHT22;63889;50.596;8.690;2022-12-24T03:52:24;10.60;99.90
14170;DHT22;63889;50.596;8.690;2022-12-24T03:54:50;10.60;99.90
14170;DHT22;63889;50.596;8.690;2022-12-24T03:57:15;10.70;99.90
14170;DHT22;63889;50.596;8.690;2022-12-24T03:59:41;10.80;99.90
14170;DHT22;63889;50.596;8.690;2022-12-24T04:02:06;10.80;99.90
14170;DHT22;63889;50.596;8.690;2022-12-24T04:04:32;10.80;99.90
14170;DHT22;63889;50.596;8.690;2022-12-24T04:07:01;10.80;99.90
14170;DHT22;63889;50.596;8.690;2022-12-24T04:09:26;10.80;99.90
14170;DHT22;63889;50.596;8.690;2022-12-24T04:11:52;10.80;99.90
14170;DHT22;63889;50.596;8.690;2022-12-24T04:14:17;10.80;99.90
14170;DHT22;63889;50.596;8.690;2022-12-24T04:16:43;10.80;99.90
14170;DHT22;63889;50.596;8.690;2022-12-24T04:19:08;10.80;99.90
14170;DHT22;63889;50.596;8.690;2022-12-24T04:21:37;10.80;99.90
14170;DHT22;63889;50.596;8.690;2022-12-24T04:24:02;10.90;99.90
14170;DHT22;63889;50.596;8.690;2022-12-24T04:26:28;10.80;99.90
14170;DHT22;63889;50.596;8.690;2022-12-24T04:28:53;10.80;99.90
14170;DHT22;63889;50.596;8.690;2022-12-24T04:31:19;10.80;99.90
14170;DHT22;63889;50.596;8.690;2022-12-24T04:33:45;10.80;99.90
14170;DHT22;63889;50.596;8.690;2022-12-24T04:36:14;10.80;99.90
14170;DHT22;63889;50.596;8.690;2022-12-24T04:38:41;10.90;99.90
14170;DHT22;63889;50.596;8.690;2022-12-24T04:41:10;10.80;99.90
14170;DHT22;63889;50.596;8.690;2022-12-24T04:43:36;10.90;99.90
14170;DHT22;63889;50.596;8.690;2022-12-24T04:46:17;10.90;99.90
14170;DHT22;63889;50.596;8.690;2022-12-24T04:48:47;10.80;99.90
14170;DHT22;63889;50.596;8.690;2022-12-24T04:51:14;10.80;99.90
14170;DHT22;63889;50.596;8.690;2022-12-24T04:53:40;10.70;99.90
14170;DHT22;63889;50.596;8.690;2022-12-24T04:56:14;10.80;99.90
14170;DHT22;63889;50.596;8.690;2022-12-24T04:58:40;10.70;99.90
14170;DHT22;63889;50.596;8.690;2022-12-24T05:01:08;10.70;99.90
14170;DHT22;63889;50.596;8.690;2022-12-24T05:03:35;10.60;99.90
14170;DHT22;63889;50.596;8.690;2022-12-24T05:06:06;10.60;99.90
14170;DHT22;63889;50.596;8.690;2022-12-24T05:08:32;10.50;99.90
14170;DHT22;63889;50.596;8.690;2022-12-24T05:10:59;10.50;99.90
14170;DHT22;63889;50.596;8.690;2022-12-24T05:13:25;10.50;99.90
14170;DHT22;63889;50.596;8.690;2022-12-24T05:15:51;10.50;99.90
14170;DHT22;63889;50.596;8.690;2022-12-24T05:18:17;10.50;99.90
14170;DHT22;63889;50.596;8.690;2022-12-24T05:20:43;10.50;99.90
14170;DHT22;63889;50.596;8.690;2022-12-24T05:23:18;10.50;99.90
14170;DHT22;63889;50.596;8.690;2022-12-24T05:26:03;10.50;99.90
14170;DHT22;63889;50.596;8.690;2022-12-24T05:28:56;10.50;99.90
14170;DHT22;63889;50.596;8.690;2022-12-24T05:31:24;10.50;99.90
14170;DHT22;63889;50.596;8.690;2022-12-24T05:33:49;10.40;99.90
14170;DHT22;63889;50.596;8.690;2022-12-24T05:36:15;10.40;99.90
14170;DHT22;63889;50.596;8.690;2022-12-24T05:38:41;10.50;99.90
14170;DHT22;63889;50.596;8.690;2022-12-24T05:41:07;10.40;99.90
14170;DHT22;63889;50.596;8.690;2022-12-24T05:43:34;10.40;99.90
14170;DHT22;63889;50.596;8.690;2022-12-24T05:46:07;10.30;99.90
14170;DHT22;63889;50.596;8.690;2022-12-24T05:48:33;10.20;99.90
14170;DHT22;63889;50.596;8.690;2022-12-24T05:51:03;10.20;99.90
14170;DHT22;63889;50.596;8.690;2022-12-24T05:53:29;10.20;99.90
14170;DHT22;63889;50.596;8.690;2022-12-24T05:55:54;10.10;99.90
14170;DHT22;63889;50.596;8.690;2022-12-24T05:58:26;10.10;99.90
14170;DHT22;63889;50.596;8.690;2022-12-24T06:00:52;10.10;99.90
14170;DHT22;63889;50.596;8.690;2022-12-24T06:03:18;10.10;99.90
14170;DHT22;63889;50.596;8.690;2022-12-24T06:05:44;10.10;99.90
14170;DHT22;63889;50.596;8.690;2022-12-24T06:08:09;10.10;99.90
14170;DHT22;63889;50.596;8.690;2022-12-24T06:10:35;10.00;99.90
14170;DHT22;63889;50.596;8.690;2022-12-24T06:13:00;9.90;99.90
14170;DHT22;63889;50.596;8.690;2022-12-24T06:15:26;9.80;99.90
14170;DHT22;63889;50.596;8.690;2022-12-24T06:17:51;9.80;99.90
14170;DHT22;63889;50.596;8.690;2022-12-24T06:20:17;9.80;99.90
14170;DHT22;63889;50.596;8.690;2022-12-24T06:22:42;9.80;99.90
14170;DHT22;63889;50.596;8.690;2022-12-24T06:25:08;9.90;99.90
14170;DHT22;63889;50.596;8.690;2022-12-24T06:27:34;9.90;99.90
14170;DHT22;63889;50.596;8.690;2022-12-24T06:29:59;10.00;99.90
14170;DHT22;63889;50.596;8.690;2022-12-24T06:32:25;10.10;99.90
14170;DHT22;63889;50.596;8.690;2022-12-24T06:34:50;10.10;99.90
14170;DHT22;63889;50.596;8.690;2022-12-24T06:37:16;10.00;99.90
14170;DHT22;63889;50.596;8.690;2022-12-24T06:39:44;10.00;99.90
14170;DHT22;63889;50.596;8.690;2022-12-24T06:42:11;10.00;99.90
14170;DHT22;63889;50.596;8.690;2022-12-24T06:44:37;9.90;99.90
14170;DHT22;63889;50.596;8.690;2022-12-24T06:47:02;9.90;99.90
14170;DHT22;63889;50.596;8.690;2022-12-24T06:49:31;9.80;99.90
14170;DHT22;63889;50.596;8.690;2022-12-24T06:51:56;9.80;99.90
14170;DHT22;63889;50.596;8.690;2022-12-24T06:54:22;9.70;99.90
14170;DHT22;63889;50.596;8.690;2022-12-24T06:56:47;9.70;99.90
14170;DHT22;63889;50.596;8.690;2022-12-24T06:59:13;9.60;99.90
14170;DHT22;63889;50.596;8.690;2022-12-24T07:01:38;9.60;99.90
14170;DHT22;63889;50.596;8.690;2022-12-24T07:04:04;9.50;99.90
14170;DHT22;63889;50.596;8.690;2022-12-24T07:06:30;9.40;99.90
14170;DHT22;63889;50.596;8.690;2022-12-24T07:08:55;9.40;99.90
14170;DHT22;63889;50.596;8.690;2022-12-24T07:11:23;9.30;99.90
14170;DHT22;63889;50.596;8.690;2022-12-24T07:13:48;9.30;99.90
14170;DHT22;63889;50.596;8.690;2022-12-24T07:16:14;9.20;99.90
14170;DHT22;63889;50.596;8.690;2022-12-24T07:18:39;9.20;99.90
14170;DHT22;63889;50.596;8.690;2022-12-24T07:21:05;9.20;99.90
14170;DHT22;63889;50.596;8.690;2022-12-24T07:23:32;9.10;99.90
14170;DHT22;63889;50.596;8.690;2022-12-24T07:26:02;9.20;99.90
14170;DHT22;63889;50.596;8.690;2022-12-24T07:28:29;9.20;99.90
14170;DHT22;63889;50.596;8.690;2022-12-24T07:30:55;9.30;99.90
14170;DHT22;63889;50.596;8.690;2022-12-24T07:33:22;9.20;99.90
14170;DHT22;63889;50.596;8.690;2022-12-24T07:35:47;9.20;99.90
14170;DHT22;63889;50.596;8.690;2022-12-24T07:38:13;9.20;99.90
14170;DHT22;63889;50.596;8.690;2022-12-24T07:40:38;9.20;99.90
14170;DHT22;63889;50.596;8.690;2022-12-24T07:43:04;9.10;99.90
14170;DHT22;63889;50.596;8.690;2022-12-24T07:45:29;9.10;99.90
14170;DHT22;63889;50.596;8.690;2022-12-24T07:47:55;9.10;99.90
14170;DHT22;63889;50.596;8.690;2022-12-24T07:50:20;9.10;99.90
14170;DHT22;63889;50.596;8.690;2022-12-24T07:52:46;9.10;99.90
14170;DHT22;63889;50.596;8.690;2022-12-24T07:55:11;9.10;99.90
14170;DHT22;63889;50.596;8.690;2022-12-24T07:57:37;9.20;99.90
14170;DHT22;63889;50.596;8.690;2022-12-24T08:00:03;9.20;99.90
14170;DHT22;63889;50.596;8.690;2022-12-24T08:02:29;9.30;99.90
14170;DHT22;63889;50.596;8.690;2022-12-24T08:04:55;9.30;99.90
14170;DHT22;63889;50.596;8.690;2022-12-24T08:07:20;9.40;99.90
14170;DHT22;63889;50.596;8.690;2022-12-24T08:09:46;9.50;99.90
14170;DHT22;63889;50.596;8.690;2022-12-24T08:12:11;9.60;99.90
14170;DHT22;63889;50.596;8.690;2022-12-24T08:14:37;9.60;99.90
14170;DHT22;63889;50.596;8.690;2022-12-24T08:17:03;9.70;99.90
14170;DHT22;63889;50.596;8.690;2022-12-24T08:19:28;9.70;99.90
14170;DHT22;63889;50.596;8.690;2022-12-24T08:21:59;9.80;99.90
14170;DHT22;63889;50.596;8.690;2022-12-24T08:24:24;9.80;99.90
14170;DHT22;63889;50.596;8.690;2022-12-24T08:26:50;9.90;99.90
14170;DHT22;63889;50.596;8.690;2022-12-24T08:29:15;10.00;99.90
14170;DHT22;63889;50.596;8.690;2022-12-24T08:32:11;10.00;99.90
14170;DHT22;63889;50.596;8.690;2022-12-24T08:34:37;10.10;99.90
14170;DHT22;63889;50.596;8.690;2022-12-24T08:37:02;10.10;99.90
14170;DHT22;63889;50.596;8.690;2022-12-24T08:39:28;10.20;99.90
14170;DHT22;63889;50.596;8.690;2022-12-24T08:41:53;10.20;99.90
14170;DHT22;63889;50.596;8.690;2022-12-24T08:44:19;10.20;99.90
14170;DHT22;63889;50.596;8.690;2022-12-24T08:46:44;10.20;99.90
14170;DHT22;63889;50.596;8.690;2022-12-24T08:49:10;10.10;99.90
14170;DHT22;63889;50.596;8.690;2022-12-24T08:51:36;10.10;99.90
14170;DHT22;63889;50.596;8.690;2022-12-24T08:54:02;10.10;99.90
14170;DHT22;63889;50.596;8.690;2022-12-24T08:56:27;10.10;99.90
14170;DHT22;63889;50.596;8.690;2022-12-24T08:58:53;10.00;99.90
14170;DHT22;63889;50.596;8.690;2022-12-24T09:01:19;10.10;99.90
14170;DHT22;63889;50.596;8.690;2022-12-24T09:03:45;10.10;99.90
14170;DHT22;63889;50.596;8.690;2022-12-24T09:06:11;10.10;99.90
14170;DHT22;63889;50.596;8.690;2022-12-24T09:08:37;10.20;99.90
14170;DHT22;63889;50.596;8.690;2022-12-24T09:11:08;10.20;99.90
14170;DHT22;63889;50.596;8.690;2022-12-24T09:13:36;10.20;99.90
14170;DHT22;63889;50.596;8.690;2022-12-24T09:16:02;10.20;99.90
14170;DHT22;63889;50.596;8.690;2022-12-24T09:18:27;10.10;99.90
14170;DHT22;63889;50.596;8.690;2022-12-24T09:21:00;10.20;99.90
14170;DHT22;63889;50.596;8.690;2022-12-24T09:23:26;10.20;99.90
14170;DHT22;63889;50.596;8.690;2022-12-24T09:25:52;10.20;99.90
14170;DHT22;63889;50.596;8.690;2022-12-24T09:28:18;10.20;99.90
14170;DHT22;63889;50.596;8.690;2022-12-24T09:30:43;10.10;99.90
14170;DHT22;63889;50.596;8.690;2022-12-24T09:33:09;10.10;99.90
14170;DHT22;63889;50.596;8.690;2022-12-24T09:35:37;10.10;99.90
14170;DHT22;63889;50.596;8.690;2022-12-24T09:38:02;10.10;99.90
14170;DHT22;63889;50.596;8.690;2022-12-24T09:40:35;10.20;99.90
14170;DHT22;63889;50.596;8.690;2022-12-24T09:43:20;10.30;99.90
14170;DHT22;63889;50.596;8.690;2022-12-24T09:46:13;10.40;99.90
14170;DHT22;63889;50.596;8.690;2022-12-24T09:48:45;10.50;99.90
14170;DHT22;63889;50.596;8.690;2022-12-24T09:51:21;10.60;99.90
14170;DHT22;63889;50.596;8.690;2022-12-24T09:54:02;10.70;99.90
14170;DHT22;63889;50.596;8.690;2022-12-24T09:56:34;10.80;99.90
14170;DHT22;63889;50.596;8.690;2022-12-24T09:59:04;10.80;99.90
14170;DHT22;63889;50.596;8.690;2022-12-24T10:01:32;11.00;99.90
14170;DHT22;63889;50.596;8.690;2022-12-24T10:04:16;11.10;99.90
14170;DHT22;63889;50.596;8.690;2022-12-24T10:09:54;11.10;99.90
14170;DHT22;63889;50.596;8.690;2022-12-24T10:12:44;11.20;99.90
14170;DHT22;63889;50.596;8.690;2022-12-24T10:15:39;11.20;99.90
14170;DHT22;63889;50.596;8.690;2022-12-24T10:18:12;11.30;99.90
14170;DHT22;63889;50.596;8.690;2022-12-24T10:23:19;11.40;99.90
14170;DHT22;63889;50.596;8.690;2022-12-24T10:28:51;11.40;99.90
14170;DHT22;63889;50.596;8.690;2022-12-24T10:31:31;11.40;99.90
14170;DHT22;63889;50.596;8.690;2022-12-24T10:34:01;11.60;99.90
14170;DHT22;63889;50.596;8.690;2022-12-24T10:36:28;11.70;99.90
14170;DHT22;63889;50.596;8.690;2022-12-24T10:38:54;11.70;99.90
14170;DHT22;63889;50.596;8.690;2022-12-24T10:41:21;11.70;99.90
14170;DHT22;63889;50.596;8.690;2022-12-24T10:43:47;11.90;99.90
14170;DHT22;63889;50.596;8.690;2022-12-24T10:46:22;11.90;99.90
14170;DHT22;63889;50.596;8.690;2022-12-24T10:49:02;11.90;99.90
14170;DHT22;63889;50.596;8.690;2022-12-24T10:54:10;11.80;99.90
14170;DHT22;63889;50.596;8.690;2022-12-24T10:56:43;11.80;99.90
14170;DHT22;63889;50.596;8.690;2022-12-24T10:59:42;11.80;99.90
14170;DHT22;63889;50.596;8.690;2022-12-24T11:02:31;11.80;99.90
14170;DHT22;63889;50.596;8.690;2022-12-24T11:04:59;11.70;99.90
14170;DHT22;63889;50.596;8.690;2022-12-24T11:07:27;11.80;99.90
14170;DHT22;63889;50.596;8.690;2022-12-24T11:12:23;11.80;99.90
14170;DHT22;63889;50.596;8.690;2022-12-24T11:15:05;11.70;99.90
14170;DHT22;63889;50.596;8.690;2022-12-24T11:17:32;11.70;99.90
14170;DHT22;63889;50.596;8.690;2022-12-24T11:19:58;11.70;99.90
14170;DHT22;63889;50.596;8.690;2022-12-24T11:22:27;11.70;99.90
14170;DHT22;63889;50.596;8.690;2022-12-24T11:25:06;11.70;99.90
14170;DHT22;63889;50.596;8.690;2022-12-24T11:27:44;11.70;99.90
14170;DHT22;63889;50.596;8.690;2022-12-24T11:32:43;11.70;99.90
14170;DHT22;63889;50.596;8.690;2022-12-24T11:35:30;11.70;99.90
14170;DHT22;63889;50.596;8.690;2022-12-24T11:40:40;11.70;99.90
14170;DHT22;63889;50.596;8.690;2022-12-24T11:43:14;11.60;99.90
14170;DHT22;63889;50.596;8.690;2022-12-24T11:45:50;11.70;99.90
14170;DHT22;63889;50.596;8.690;2022-12-24T11:48:33;11.70;99.90
14170;DHT22;63889;50.596;8.690;2022-12-24T11:51:01;11.70;99.90
14170;DHT22;63889;50.596;8.690;2022-12-24T11:53:33;11.70;99.90
14170;DHT22;63889;50.596;8.690;2022-12-24T11:56:04;11.80;99.90
14170;DHT22;63889;50.596;8.690;2022-12-24T11:58:36;11.80;99.90
14170;DHT22;63889;50.596;8.690;2022-12-24T12:04:05;11.80;99.90
14170;DHT22;63889;50.596;8.690;2022-12-24T12:06:42;11.70;99.90
14170;DHT22;63889;50.596;8.690;2022-12-24T12:09:13;11.70;99.90
14170;DHT22;63889;50.596;8.690;2022-12-24T12:11:41;11.80;99.90
14170;DHT22;63889;50.596;8.690;2022-12-24T12:14:14;11.80;99.90
14170;DHT22;63889;50.596;8.690;2022-12-24T12:25:33;11.90;99.90
14170;DHT22;63889;50.596;8.690;2022-12-24T12:28:02;11.80;99.90
14170;DHT22;63889;50.596;8.690;2022-12-24T12:30:31;11.80;99.90
14170;DHT22;63889;50.596;8.690;2022-12-24T12:35:42;11.80;99.90
14170;DHT22;63889;50.596;8.690;2022-12-24T12:38:23;11.80;99.90
14170;DHT22;63889;50.596;8.690;2022-12-24T12:49:10;12.00;99.90
14170;DHT22;63889;50.596;8.690;2022-12-24T12:52:00;12.10;99.90
14170;DHT22;63889;50.596;8.690;2022-12-24T12:54:41;12.20;99.90
14170;DHT22;63889;50.596;8.690;2022-12-24T12:57:16;12.20;99.90
14170;DHT22;63889;50.596;8.690;2022-12-24T13:06:20;12.40;99.90
14170;DHT22;63889;50.596;8.690;2022-12-24T13:12:12;12.40;99.90
14170;DHT22;63889;50.596;8.690;2022-12-24T13:22:59;12.30;99.90
14170;DHT22;63889;50.596;8.690;2022-12-24T13:25:36;12.30;99.90
14170;DHT22;63889;50.596;8.690;2022-12-24T13:30:48;12.30;99.90
14170;DHT22;63889;50.596;8.690;2022-12-24T13:36:13;12.20;99.90
14170;DHT22;63889;50.596;8.690;2022-12-24T13:38:56;12.20;99.90
14170;DHT22;63889;50.596;8.690;2022-12-24T13:49:39;12.30;99.90
14170;DHT22;63889;50.596;8.690;2022-12-24T14:00:42;12.40;99.90
14170;DHT22;63889;50.596;8.690;2022-12-24T14:08:10;12.30;99.90
14170;DHT22;63889;50.596;8.690;2022-12-24T14:10:40;12.40;99.90
14170;DHT22;63889;50.596;8.690;2022-12-24T14:18:38;12.20;99.90
14170;DHT22;63889;50.596;8.690;2022-12-24T14:21:04;12.20;99.90
14170;DHT22;63889;50.596;8.690;2022-12-24T14:24:04;12.20;99.90
14170;DHT22;63889;50.596;8.690;2022-12-24T14:26:42;12.20;99.90
14170;DHT22;63889;50.596;8.690;2022-12-24T14:29:37;12.20;99.90
14170;DHT22;63889;50.596;8.690;2022-12-24T14:32:15;12.10;99.90
14170;DHT22;63889;50.596;8.690;2022-12-24T14:34:40;12.10;99.90
14170;DHT22;63889;50.596;8.690;2022-12-24T14:37:09;12.10;99.90
14170;DHT22;63889;50.596;8.690;2022-12-24T14:39:40;12.20;99.90
14170;DHT22;63889;50.596;8.690;2022-12-24T14:45:37;12.10;99.90
14170;DHT22;63889;50.596;8.690;2022-12-24T14:48:18;12.10;99.90
14170;DHT22;63889;50.596;8.690;2022-12-24T14:51:12;12.30;99.90
14170;DHT22;63889;50.596;8.690;2022-12-24T14:56:33;12.00;99.90
14170;DHT22;63889;50.596;8.690;2022-12-24T14:58:58;11.90;99.90
14170;DHT22;63889;50.596;8.690;2022-12-24T15:01:30;11.80;99.90
14170;DHT22;63889;50.596;8.690;2022-12-24T15:06:46;11.80;99.90
14170;DHT22;63889;50.596;8.690;2022-12-24T15:09:27;11.70;99.90
14170;DHT22;63889;50.596;8.690;2022-12-24T15:11:56;11.70;99.90
14170;DHT22;63889;50.596;8.690;2022-12-24T15:14:24;11.60;99.90
14170;DHT22;63889;50.596;8.690;2022-12-24T15:16:57;11.70;99.90
14170;DHT22;63889;50.596;8.690;2022-12-24T15:19:38;11.60;99.90
14170;DHT22;63889;50.596;8.690;2022-12-24T15:22:08;11.50;99.90
14170;DHT22;63889;50.596;8.690;2022-12-24T15:24:42;11.50;99.90
14170;DHT22;63889;50.596;8.690;2022-12-24T15:27:18;11.40;99.90
14170;DHT22;63889;50.596;8.690;2022-12-24T15:29:46;11.40;99.90
14170;DHT22;63889;50.596;8.690;2022-12-24T15:32:14;11.40;99.90
14170;DHT22;63889;50.596;8.690;2022-12-24T15:34:43;11.50;99.90
14170;DHT22;63889;50.596;8.690;2022-12-24T15:37:29;11.40;99.90
14170;DHT22;63889;50.596;8.690;2022-12-24T15:42:22;11.40;99.90
14170;DHT22;63889;50.596;8.690;2022-12-24T15:45:16;11.40;99.90
14170;DHT22;63889;50.596;8.690;2022-12-24T15:50:30;11.30;99.90
14170;DHT22;63889;50.596;8.690;2022-12-24T15:53:01;11.30;99.90
14170;DHT22;63889;50.596;8.690;2022-12-24T15:58:17;11.30;99.90
14170;DHT22;63889;50.596;8.690;2022-12-24T16:01:25;11.20;99.90
14170;DHT22;63889;50.596;8.690;2022-12-24T16:06:18;11.00;99.90
14170;DHT22;63889;50.596;8.690;2022-12-24T16:08:45;10.90;99.90
14170;DHT22;63889;50.596;8.690;2022-12-24T16:11:13;10.70;99.90
14170;DHT22;63889;50.596;8.690;2022-12-24T16:16:16;10.40;99.90
14170;DHT22;63889;50.596;8.690;2022-12-24T16:18:55;10.30;99.90
14170;DHT22;63889;50.596;8.690;2022-12-24T16:21:41;10.20;99.90
14170;DHT22;63889;50.596;8.690;2022-12-24T16:24:14;10.00;99.90
14170;DHT22;63889;50.596;8.690;2022-12-24T16:26:40;10.00;99.90
14170;DHT22;63889;50.596;8.690;2022-12-24T16:29:06;9.90;99.90
14170;DHT22;63889;50.596;8.690;2022-12-24T16:31:35;9.80;99.90
14170;DHT22;63889;50.596;8.690;2022-12-24T16:34:02;9.60;99.90
14170;DHT22;63889;50.596;8.690;2022-12-24T16:36:29;9.70;99.90
14170;DHT22;63889;50.596;8.690;2022-12-24T16:38:56;9.70;99.90
14170;DHT22;63889;50.596;8.690;2022-12-24T16:41:41;9.70;99.90
14170;DHT22;63889;50.596;8.690;2022-12-24T16:44:25;9.80;99.90
14170;DHT22;63889;50.596;8.690;2022-12-24T16:46:52;9.80;99.90
14170;DHT22;63889;50.596;8.690;2022-12-24T16:49:19;9.80;99.90
14170;DHT22;63889;50.596;8.690;2022-12-24T16:51:46;9.80;99.90
14170;DHT22;63889;50.596;8.690;2022-12-24T16:54:12;9.80;99.90
14170;DHT22;63889;50.596;8.690;2022-12-24T16:56:39;9.70;99.90
14170;DHT22;63889;50.596;8.690;2022-12-24T16:59:05;9.70;99.90
14170;DHT22;63889;50.596;8.690;2022-12-24T17:01:31;9.70;99.90
14170;DHT22;63889;50.596;8.690;2022-12-24T17:03:56;9.70;99.90
14170;DHT22;63889;50.596;8.690;2022-12-24T17:06:22;9.70;99.90
14170;DHT22;63889;50.596;8.690;2022-12-24T17:08:48;9.60;99.90
14170;DHT22;63889;50.596;8.690;2022-12-24T17:11:13;9.50;99.90
14170;DHT22;63889;50.596;8.690;2022-12-24T17:13:39;9.40;99.90
14170;DHT22;63889;50.596;8.690;2022-12-24T17:16:05;9.40;99.90
14170;DHT22;63889;50.596;8.690;2022-12-24T17:18:31;9.30;99.90
14170;DHT22;63889;50.596;8.690;2022-12-24T17:21:01;9.20;99.90
14170;DHT22;63889;50.596;8.690;2022-12-24T17:23:28;9.20;99.90
14170;DHT22;63889;50.596;8.690;2022-12-24T17:25:54;9.10;99.90
14170;DHT22;63889;50.596;8.690;2022-12-24T17:28:20;9.10;99.90
14170;DHT22;63889;50.596;8.690;2022-12-24T17:30:45;9.00;99.90
14170;DHT22;63889;50.596;8.690;2022-12-24T17:33:11;9.00;99.90
14170;DHT22;63889;50.596;8.690;2022-12-24T17:35:41;9.10;99.90
14170;DHT22;63889;50.596;8.690;2022-12-24T17:38:07;9.20;99.90
14170;DHT22;63889;50.596;8.690;2022-12-24T17:40:33;9.10;99.90
14170;DHT22;63889;50.596;8.690;2022-12-24T17:42:58;9.20;99.90
14170;DHT22;63889;50.596;8.690;2022-12-24T17:45:24;9.20;99.90
14170;DHT22;63889;50.596;8.690;2022-12-24T17:47:50;9.00;99.90
14170;DHT22;63889;50.596;8.690;2022-12-24T17:50:15;9.00;99.90
14170;DHT22;63889;50.596;8.690;2022-12-24T17:52:41;9.00;99.90
14170;DHT22;63889;50.596;8.690;2022-12-24T17:55:07;8.90;99.90
14170;DHT22;63889;50.596;8.690;2022-12-24T17:57:33;8.90;99.90
14170;DHT22;63889;50.596;8.690;2022-12-24T17:59:58;8.80;99.90
14170;DHT22;63889;50.596;8.690;2022-12-24T18:02:24;8.80;99.90
14170;DHT22;63889;50.596;8.690;2022-12-24T18:04:50;8.80;99.90
14170;DHT22;63889;50.596;8.690;2022-12-24T18:07:15;8.70;99.90
14170;DHT22;63889;50.596;8.690;2022-12-24T18:09:43;8.70;99.90